Terminal Aerodrome Forecast
Issued by NWS

Current Version | Previous Version | Text Only | Print | Product List | Glossary On
Versions: 1 2 3 4 5 6 7 8 9 10 11 12
782
FTUS45 KREV 280520
TAFMMH
TAF
KMMH 280520Z 2806/2906 VRB04KT P6SM SKC
     FM281500 13007KT P6SM SKC
     FM282100 28011G20KT P6SM SCT110
     FM290400 VRB04KT P6SM SCT110=

USA.gov is the U.S. government's official web portal to all federal, state and local government web resources and services.